Terminal Aerodrome Forecast
Issued by NWS Portland, OR

Home | Current Version | Previous Version | Text Only | Print | Product List | Glossary On
Versions: 1 2 3 4 5 6 7 8 9 10 11 12 13 14 15 16 17 18
000
FTUS46 KPQR 191144
TAFEUG
TAF
KEUG 191144Z 1912/2012 21004KT 2SM BR BKN002
     FM191700 18007KT 5SM BR OVC007
     FM192000 18010KT P6SM SCT007 OVC050
     FM200500 19012G18KT P6SM -RA SCT025 OVC040
     FM201100 18012KT P6SM -RA OVC025=

USA.gov is the U.S. government's official web portal to all federal, state and local government web resources and services.